sensor_id;sensor_type;location;lat;lon;timestamp;P1;durP1;ratioP1;P2;durP2;ratioP2
84474;SDS011;74699;43.068;0.152;2024-01-16T00:01:53;2.25;;;0.70;;
84474;SDS011;74699;43.068;0.152;2024-01-16T00:04:19;2.15;;;0.77;;
84474;SDS011;74699;43.068;0.152;2024-01-16T00:06:45;2.17;;;0.70;;
84474;SDS011;74699;43.068;0.152;2024-01-16T00:09:12;2.45;;;0.50;;
84474;SDS011;74699;43.068;0.152;2024-01-16T00:11:41;2.58;;;0.82;;
84474;SDS011;74699;43.068;0.152;2024-01-16T00:14:07;2.40;;;0.63;;
84474;SDS011;74699;43.068;0.152;2024-01-16T00:16:33;3.28;;;0.70;;
84474;SDS011;74699;43.068;0.152;2024-01-16T00:18:59;3.22;;;0.90;;
84474;SDS011;74699;43.068;0.152;2024-01-16T00:21:25;2.83;;;0.93;;
84474;SDS011;74699;43.068;0.152;2024-01-16T00:23:51;2.40;;;0.70;;
84474;SDS011;74699;43.068;0.152;2024-01-16T00:26:21;3.33;;;0.90;;
84474;SDS011;74699;43.068;0.152;2024-01-16T00:28:47;2.60;;;1.08;;
84474;SDS011;74699;43.068;0.152;2024-01-16T00:31:13;2.80;;;0.82;;
84474;SDS011;74699;43.068;0.152;2024-01-16T00:33:39;1.90;;;0.57;;
84474;SDS011;74699;43.068;0.152;2024-01-16T00:36:05;2.20;;;0.55;;
84474;SDS011;74699;43.068;0.152;2024-01-16T00:38:34;3.85;;;1.23;;
84474;SDS011;74699;43.068;0.152;2024-01-16T00:41:00;2.83;;;0.80;;
84474;SDS011;74699;43.068;0.152;2024-01-16T00:43:26;1.98;;;0.60;;
84474;SDS011;74699;43.068;0.152;2024-01-16T00:45:52;2.17;;;0.65;;
84474;SDS011;74699;43.068;0.152;2024-01-16T00:48:19;4.35;;;0.88;;
84474;SDS011;74699;43.068;0.152;2024-01-16T00:50:46;2.83;;;0.70;;
84474;SDS011;74699;43.068;0.152;2024-01-16T00:53:15;4.20;;;0.88;;
84474;SDS011;74699;43.068;0.152;2024-01-16T00:55:41;2.28;;;0.88;;
84474;SDS011;74699;43.068;0.152;2024-01-16T00:58:08;3.78;;;0.65;;
84474;SDS011;74699;43.068;0.152;2024-01-16T01:00:34;3.33;;;0.70;;
84474;SDS011;74699;43.068;0.152;2024-01-16T01:03:02;2.05;;;0.68;;
84474;SDS011;74699;43.068;0.152;2024-01-16T01:05:29;2.65;;;0.90;;
84474;SDS011;74699;43.068;0.152;2024-01-16T01:07:55;2.53;;;0.63;;
84474;SDS011;74699;43.068;0.152;2024-01-16T01:10:21;1.77;;;0.50;;
84474;SDS011;74699;43.068;0.152;2024-01-16T01:12:47;2.20;;;0.80;;
84474;SDS011;74699;43.068;0.152;2024-01-16T01:15:13;2.72;;;0.60;;
84474;SDS011;74699;43.068;0.152;2024-01-16T01:17:40;2.95;;;0.93;;
84474;SDS011;74699;43.068;0.152;2024-01-16T01:20:07;3.13;;;0.90;;
84474;SDS011;74699;43.068;0.152;2024-01-16T01:22:34;2.70;;;0.70;;
84474;SDS011;74699;43.068;0.152;2024-01-16T01:25:00;2.17;;;0.95;;
84474;SDS011;74699;43.068;0.152;2024-01-16T01:27:26;2.30;;;0.68;;
84474;SDS011;74699;43.068;0.152;2024-01-16T01:29:52;3.70;;;0.70;;
84474;SDS011;74699;43.068;0.152;2024-01-16T01:32:18;2.30;;;0.80;;
84474;SDS011;74699;43.068;0.152;2024-01-16T01:34:44;3.05;;;0.88;;
84474;SDS011;74699;43.068;0.152;2024-01-16T01:37:10;2.80;;;1.00;;
84474;SDS011;74699;43.068;0.152;2024-01-16T01:39:36;1.98;;;0.60;;
84474;SDS011;74699;43.068;0.152;2024-01-16T01:42:02;2.30;;;0.63;;
84474;SDS011;74699;43.068;0.152;2024-01-16T01:44:28;2.05;;;0.73;;
84474;SDS011;74699;43.068;0.152;2024-01-16T01:46:54;2.83;;;0.70;;
84474;SDS011;74699;43.068;0.152;2024-01-16T01:49:20;2.90;;;0.77;;
84474;SDS011;74699;43.068;0.152;2024-01-16T01:51:47;3.60;;;0.82;;
84474;SDS011;74699;43.068;0.152;2024-01-16T01:54:14;3.33;;;0.63;;
84474;SDS011;74699;43.068;0.152;2024-01-16T01:56:44;2.22;;;0.70;;
84474;SDS011;74699;43.068;0.152;2024-01-16T01:59:10;1.90;;;0.70;;
84474;SDS011;74699;43.068;0.152;2024-01-16T02:01:37;3.08;;;0.82;;
84474;SDS011;74699;43.068;0.152;2024-01-16T02:04:03;2.60;;;1.00;;
84474;SDS011;74699;43.068;0.152;2024-01-16T02:06:30;2.50;;;0.70;;
84474;SDS011;74699;43.068;0.152;2024-01-16T02:08:56;2.95;;;0.73;;
84474;SDS011;74699;43.068;0.152;2024-01-16T02:11:22;2.35;;;0.80;;
84474;SDS011;74699;43.068;0.152;2024-01-16T02:13:48;2.40;;;0.82;;
84474;SDS011;74699;43.068;0.152;2024-01-16T02:16:21;1.83;;;0.70;;
84474;SDS011;74699;43.068;0.152;2024-01-16T02:18:47;2.28;;;0.73;;
84474;SDS011;74699;43.068;0.152;2024-01-16T02:21:22;2.97;;;0.70;;
84474;SDS011;74699;43.068;0.152;2024-01-16T02:23:50;2.13;;;0.68;;
84474;SDS011;74699;43.068;0.152;2024-01-16T02:26:17;2.58;;;0.88;;
84474;SDS011;74699;43.068;0.152;2024-01-16T02:28:44;2.50;;;0.50;;
84474;SDS011;74699;43.068;0.152;2024-01-16T02:31:10;2.63;;;0.88;;
84474;SDS011;74699;43.068;0.152;2024-01-16T02:33:36;2.10;;;0.43;;
84474;SDS011;74699;43.068;0.152;2024-01-16T02:36:03;1.88;;;0.65;;
84474;SDS011;74699;43.068;0.152;2024-01-16T02:38:29;2.67;;;0.90;;
84474;SDS011;74699;43.068;0.152;2024-01-16T02:40:55;2.33;;;0.77;;
84474;SDS011;74699;43.068;0.152;2024-01-16T02:43:21;2.33;;;0.60;;
84474;SDS011;74699;43.068;0.152;2024-01-16T02:45:48;3.03;;;0.70;;
84474;SDS011;74699;43.068;0.152;2024-01-16T02:48:17;2.53;;;0.93;;
84474;SDS011;74699;43.068;0.152;2024-01-16T02:50:43;3.95;;;0.80;;
84474;SDS011;74699;43.068;0.152;2024-01-16T02:53:09;2.00;;;0.55;;
84474;SDS011;74699;43.068;0.152;2024-01-16T02:55:35;1.50;;;0.50;;
84474;SDS011;74699;43.068;0.152;2024-01-16T02:58:01;2.25;;;0.63;;
84474;SDS011;74699;43.068;0.152;2024-01-16T03:00:28;2.22;;;0.60;;
84474;SDS011;74699;43.068;0.152;2024-01-16T03:02:54;1.52;;;0.57;;
84474;SDS011;74699;43.068;0.152;2024-01-16T03:05:20;1.55;;;0.50;;
84474;SDS011;74699;43.068;0.152;2024-01-16T03:07:46;1.67;;;0.47;;
84474;SDS011;74699;43.068;0.152;2024-01-16T03:10:12;2.33;;;0.60;;
84474;SDS011;74699;43.068;0.152;2024-01-16T03:12:38;1.77;;;0.50;;
84474;SDS011;74699;43.068;0.152;2024-01-16T03:15:04;1.55;;;0.60;;
84474;SDS011;74699;43.068;0.152;2024-01-16T03:17:31;4.25;;;1.30;;
84474;SDS011;74699;43.068;0.152;2024-01-16T03:19:57;2.13;;;0.75;;
84474;SDS011;74699;43.068;0.152;2024-01-16T03:22:23;2.92;;;1.00;;
84474;SDS011;74699;43.068;0.152;2024-01-16T03:24:49;1.50;;;0.43;;
84474;SDS011;74699;43.068;0.152;2024-01-16T03:27:15;1.63;;;0.43;;
84474;SDS011;74699;43.068;0.152;2024-01-16T03:29:41;1.27;;;0.40;;
84474;SDS011;74699;43.068;0.152;2024-01-16T03:32:07;1.63;;;0.50;;
84474;SDS011;74699;43.068;0.152;2024-01-16T03:34:34;0.35;;;0.17;;
84474;SDS011;74699;43.068;0.152;2024-01-16T03:37:00;2.03;;;0.50;;
84474;SDS011;74699;43.068;0.152;2024-01-16T03:39:26;1.50;;;0.50;;
84474;SDS011;74699;43.068;0.152;2024-01-16T03:41:52;2.22;;;0.50;;
84474;SDS011;74699;43.068;0.152;2024-01-16T03:44:18;2.15;;;0.50;;
84474;SDS011;74699;43.068;0.152;2024-01-16T03:46:44;2.33;;;0.60;;
84474;SDS011;74699;43.068;0.152;2024-01-16T03:49:10;1.98;;;0.50;;
84474;SDS011;74699;43.068;0.152;2024-01-16T03:51:36;1.38;;;0.60;;
84474;SDS011;74699;43.068;0.152;2024-01-16T03:54:02;2.50;;;0.30;;
84474;SDS011;74699;43.068;0.152;2024-01-16T03:56:29;2.03;;;0.40;;
84474;SDS011;74699;43.068;0.152;2024-01-16T03:58:55;1.65;;;0.60;;
84474;SDS011;74699;43.068;0.152;2024-01-16T04:01:30;1.20;;;0.45;;
84474;SDS011;74699;43.068;0.152;2024-01-16T04:03:57;1.25;;;0.40;;
84474;SDS011;74699;43.068;0.152;2024-01-16T04:06:23;1.30;;;0.40;;
84474;SDS011;74699;43.068;0.152;2024-01-16T04:08:49;1.98;;;0.43;;
84474;SDS011;74699;43.068;0.152;2024-01-16T04:11:15;0.95;;;0.43;;
84474;SDS011;74699;43.068;0.152;2024-01-16T04:13:41;2.50;;;0.47;;
84474;SDS011;74699;43.068;0.152;2024-01-16T04:16:07;2.03;;;0.22;;
84474;SDS011;74699;43.068;0.152;2024-01-16T04:18:36;1.90;;;0.50;;
84474;SDS011;74699;43.068;0.152;2024-01-16T04:21:03;3.08;;;0.70;;
84474;SDS011;74699;43.068;0.152;2024-01-16T04:23:29;1.85;;;0.60;;
84474;SDS011;74699;43.068;0.152;2024-01-16T04:25:55;1.90;;;0.52;;
84474;SDS011;74699;43.068;0.152;2024-01-16T04:28:21;2.17;;;0.63;;
84474;SDS011;74699;43.068;0.152;2024-01-16T04:30:47;1.95;;;0.70;;
84474;SDS011;74699;43.068;0.152;2024-01-16T04:33:13;4.20;;;0.80;;
84474;SDS011;74699;43.068;0.152;2024-01-16T04:35:39;2.50;;;0.60;;
84474;SDS011;74699;43.068;0.152;2024-01-16T04:38:05;1.33;;;0.75;;
84474;SDS011;74699;43.068;0.152;2024-01-16T04:40:32;1.85;;;0.75;;
84474;SDS011;74699;43.068;0.152;2024-01-16T04:42:59;2.72;;;0.80;;
84474;SDS011;74699;43.068;0.152;2024-01-16T04:45:25;3.17;;;0.82;;
84474;SDS011;74699;43.068;0.152;2024-01-16T04:47:51;2.72;;;0.70;;
84474;SDS011;74699;43.068;0.152;2024-01-16T04:50:17;2.50;;;0.65;;
84474;SDS011;74699;43.068;0.152;2024-01-16T04:52:43;3.88;;;0.82;;
84474;SDS011;74699;43.068;0.152;2024-01-16T04:55:10;2.03;;;0.52;;
84474;SDS011;74699;43.068;0.152;2024-01-16T04:57:36;1.88;;;0.47;;
84474;SDS011;74699;43.068;0.152;2024-01-16T05:00:02;1.90;;;0.80;;
84474;SDS011;74699;43.068;0.152;2024-01-16T05:02:32;1.42;;;0.50;;
84474;SDS011;74699;43.068;0.152;2024-01-16T05:04:58;3.22;;;1.00;;
84474;SDS011;74699;43.068;0.152;2024-01-16T05:07:24;1.92;;;0.65;;
84474;SDS011;74699;43.068;0.152;2024-01-16T05:09:51;1.92;;;0.50;;
84474;SDS011;74699;43.068;0.152;2024-01-16T05:12:17;1.60;;;0.40;;
84474;SDS011;74699;43.068;0.152;2024-01-16T05:14:43;3.10;;;0.70;;
84474;SDS011;74699;43.068;0.152;2024-01-16T05:17:09;1.85;;;0.70;;
84474;SDS011;74699;43.068;0.152;2024-01-16T05:19:36;3.72;;;0.88;;
84474;SDS011;74699;43.068;0.152;2024-01-16T05:22:02;1.50;;;0.50;;
84474;SDS011;74699;43.068;0.152;2024-01-16T05:24:29;1.58;;;0.57;;
84474;SDS011;74699;43.068;0.152;2024-01-16T05:26:55;2.33;;;0.70;;
84474;SDS011;74699;43.068;0.152;2024-01-16T05:29:21;2.50;;;0.57;;
84474;SDS011;74699;43.068;0.152;2024-01-16T05:31:47;1.30;;;0.40;;
84474;SDS011;74699;43.068;0.152;2024-01-16T05:34:13;3.20;;;0.52;;
84474;SDS011;74699;43.068;0.152;2024-01-16T05:36:40;1.30;;;0.40;;
84474;SDS011;74699;43.068;0.152;2024-01-16T05:39:06;2.45;;;0.57;;
84474;SDS011;74699;43.068;0.152;2024-01-16T05:41:33;2.95;;;0.68;;
84474;SDS011;74699;43.068;0.152;2024-01-16T05:44:00;4.55;;;2.30;;
84474;SDS011;74699;43.068;0.152;2024-01-16T05:46:28;2.90;;;1.10;;
84474;SDS011;74699;43.068;0.152;2024-01-16T05:48:55;1.88;;;0.75;;
84474;SDS011;74699;43.068;0.152;2024-01-16T05:51:21;2.90;;;1.00;;
84474;SDS011;74699;43.068;0.152;2024-01-16T05:53:47;1.83;;;0.70;;
84474;SDS011;74699;43.068;0.152;2024-01-16T05:56:13;1.70;;;0.80;;
84474;SDS011;74699;43.068;0.152;2024-01-16T05:58:39;1.10;;;0.50;;
84474;SDS011;74699;43.068;0.152;2024-01-16T06:01:05;1.65;;;0.50;;
84474;SDS011;74699;43.068;0.152;2024-01-16T06:03:31;2.17;;;0.77;;
84474;SDS011;74699;43.068;0.152;2024-01-16T06:05:58;1.88;;;0.68;;
84474;SDS011;74699;43.068;0.152;2024-01-16T06:08:24;3.28;;;0.73;;
84474;SDS011;74699;43.068;0.152;2024-01-16T06:10:50;1.77;;;0.60;;
84474;SDS011;74699;43.068;0.152;2024-01-16T06:13:17;2.08;;;0.68;;
84474;SDS011;74699;43.068;0.152;2024-01-16T06:15:44;2.45;;;1.02;;
84474;SDS011;74699;43.068;0.152;2024-01-16T06:18:10;3.78;;;1.13;;
84474;SDS011;74699;43.068;0.152;2024-01-16T06:20:36;3.03;;;1.23;;
84474;SDS011;74699;43.068;0.152;2024-01-16T06:23:02;2.60;;;0.98;;
84474;SDS011;74699;43.068;0.152;2024-01-16T06:25:28;2.67;;;0.93;;
84474;SDS011;74699;43.068;0.152;2024-01-16T06:27:54;2.95;;;1.15;;
84474;SDS011;74699;43.068;0.152;2024-01-16T06:30:21;2.50;;;0.75;;
84474;SDS011;74699;43.068;0.152;2024-01-16T06:32:48;2.20;;;0.93;;
84474;SDS011;74699;43.068;0.152;2024-01-16T06:35:15;2.13;;;0.60;;
84474;SDS011;74699;43.068;0.152;2024-01-16T06:37:41;2.50;;;0.82;;
84474;SDS011;74699;43.068;0.152;2024-01-16T06:40:07;2.67;;;0.90;;
84474;SDS011;74699;43.068;0.152;2024-01-16T06:42:34;3.00;;;1.23;;
84474;SDS011;74699;43.068;0.152;2024-01-16T06:45:03;3.10;;;1.35;;
84474;SDS011;74699;43.068;0.152;2024-01-16T06:47:30;2.85;;;1.20;;
84474;SDS011;74699;43.068;0.152;2024-01-16T06:49:56;2.00;;;1.00;;
84474;SDS011;74699;43.068;0.152;2024-01-16T06:52:22;2.60;;;1.00;;
84474;SDS011;74699;43.068;0.152;2024-01-16T06:54:49;3.33;;;1.25;;
84474;SDS011;74699;43.068;0.152;2024-01-16T06:57:15;2.63;;;1.20;;
84474;SDS011;74699;43.068;0.152;2024-01-16T06:59:41;2.60;;;1.05;;
84474;SDS011;74699;43.068;0.152;2024-01-16T07:02:07;4.60;;;1.70;;
84474;SDS011;74699;43.068;0.152;2024-01-16T07:04:33;3.40;;;1.38;;
84474;SDS011;74699;43.068;0.152;2024-01-16T07:07:00;2.90;;;1.23;;
84474;SDS011;74699;43.068;0.152;2024-01-16T07:09:26;2.80;;;1.13;;
84474;SDS011;74699;43.068;0.152;2024-01-16T07:11:52;2.97;;;1.25;;
84474;SDS011;74699;43.068;0.152;2024-01-16T07:14:18;2.50;;;1.02;;
84474;SDS011;74699;43.068;0.152;2024-01-16T07:16:44;2.65;;;1.30;;
84474;SDS011;74699;43.068;0.152;2024-01-16T07:19:10;2.75;;;1.38;;
84474;SDS011;74699;43.068;0.152;2024-01-16T07:21:39;4.35;;;1.50;;
84474;SDS011;74699;43.068;0.152;2024-01-16T07:24:05;2.25;;;0.88;;
84474;SDS011;74699;43.068;0.152;2024-01-16T07:26:32;2.97;;;1.50;;
84474;SDS011;74699;43.068;0.152;2024-01-16T07:28:59;3.05;;;1.02;;
84474;SDS011;74699;43.068;0.152;2024-01-16T07:31:25;2.20;;;0.88;;
84474;SDS011;74699;43.068;0.152;2024-01-16T07:33:51;2.05;;;0.90;;
84474;SDS011;74699;43.068;0.152;2024-01-16T07:36:17;3.60;;;0.90;;
84474;SDS011;74699;43.068;0.152;2024-01-16T07:38:43;3.22;;;1.20;;
84474;SDS011;74699;43.068;0.152;2024-01-16T07:41:09;3.20;;;0.98;;
84474;SDS011;74699;43.068;0.152;2024-01-16T07:43:35;3.83;;;1.40;;
84474;SDS011;74699;43.068;0.152;2024-01-16T07:46:01;5.00;;;1.40;;
84474;SDS011;74699;43.068;0.152;2024-01-16T07:48:28;8.20;;;2.00;;
84474;SDS011;74699;43.068;0.152;2024-01-16T07:50:54;2.83;;;1.10;;
84474;SDS011;74699;43.068;0.152;2024-01-16T07:53:20;4.10;;;1.00;;
84474;SDS011;74699;43.068;0.152;2024-01-16T07:55:46;2.60;;;0.88;;
84474;SDS011;74699;43.068;0.152;2024-01-16T07:58:13;2.88;;;0.90;;
84474;SDS011;74699;43.068;0.152;2024-01-16T08:00:39;3.47;;;1.00;;
84474;SDS011;74699;43.068;0.152;2024-01-16T08:03:07;3.08;;;1.20;;
84474;SDS011;74699;43.068;0.152;2024-01-16T08:05:33;3.92;;;1.08;;
84474;SDS011;74699;43.068;0.152;2024-01-16T08:07:59;2.95;;;1.10;;
84474;SDS011;74699;43.068;0.152;2024-01-16T08:10:25;3.10;;;0.88;;
84474;SDS011;74699;43.068;0.152;2024-01-16T08:12:51;2.90;;;1.00;;
84474;SDS011;74699;43.068;0.152;2024-01-16T08:15:17;2.88;;;1.23;;
84474;SDS011;74699;43.068;0.152;2024-01-16T08:17:43;2.55;;;1.10;;
84474;SDS011;74699;43.068;0.152;2024-01-16T08:20:09;4.53;;;1.38;;
84474;SDS011;74699;43.068;0.152;2024-01-16T08:22:36;4.43;;;1.30;;
84474;SDS011;74699;43.068;0.152;2024-01-16T08:25:02;4.88;;;1.35;;
84474;SDS011;74699;43.068;0.152;2024-01-16T08:27:30;5.82;;;1.58;;
84474;SDS011;74699;43.068;0.152;2024-01-16T08:29:56;3.25;;;1.30;;
84474;SDS011;74699;43.068;0.152;2024-01-16T08:32:22;3.55;;;1.38;;
84474;SDS011;74699;43.068;0.152;2024-01-16T08:34:48;4.10;;;1.15;;
84474;SDS011;74699;43.068;0.152;2024-01-16T08:37:14;3.00;;;1.33;;
84474;SDS011;74699;43.068;0.152;2024-01-16T08:39:40;3.95;;;1.42;;
84474;SDS011;74699;43.068;0.152;2024-01-16T08:42:06;3.72;;;1.50;;
84474;SDS011;74699;43.068;0.152;2024-01-16T08:44:32;2.85;;;1.35;;
84474;SDS011;74699;43.068;0.152;2024-01-16T08:46:58;3.83;;;1.35;;
84474;SDS011;74699;43.068;0.152;2024-01-16T08:49:25;3.92;;;1.80;;
84474;SDS011;74699;43.068;0.152;2024-01-16T08:51:52;5.63;;;1.80;;
84474;SDS011;74699;43.068;0.152;2024-01-16T08:54:18;3.72;;;1.52;;
84474;SDS011;74699;43.068;0.152;2024-01-16T08:56:44;3.30;;;1.42;;
84474;SDS011;74699;43.068;0.152;2024-01-16T08:59:10;3.05;;;1.23;;
84474;SDS011;74699;43.068;0.152;2024-01-16T09:01:36;3.60;;;1.50;;
84474;SDS011;74699;43.068;0.152;2024-01-16T09:04:02;2.78;;;1.20;;
84474;SDS011;74699;43.068;0.152;2024-01-16T09:06:28;2.30;;;0.82;;
84474;SDS011;74699;43.068;0.152;2024-01-16T09:08:54;2.20;;;0.98;;
84474;SDS011;74699;43.068;0.152;2024-01-16T09:11:20;3.15;;;1.10;;
84474;SDS011;74699;43.068;0.152;2024-01-16T09:13:46;4.07;;;1.80;;
84474;SDS011;74699;43.068;0.152;2024-01-16T09:16:12;3.47;;;1.20;;
84474;SDS011;74699;43.068;0.152;2024-01-16T09:18:40;3.17;;;1.30;;
84474;SDS011;74699;43.068;0.152;2024-01-16T09:21:06;3.58;;;1.17;;
84474;SDS011;74699;43.068;0.152;2024-01-16T09:23:32;4.43;;;1.30;;
84474;SDS011;74699;43.068;0.152;2024-01-16T09:25:58;3.30;;;1.10;;
84474;SDS011;74699;43.068;0.152;2024-01-16T09:28:24;3.63;;;1.13;;
84474;SDS011;74699;43.068;0.152;2024-01-16T09:30:53;2.97;;;1.20;;
84474;SDS011;74699;43.068;0.152;2024-01-16T09:33:21;2.55;;;1.13;;
84474;SDS011;74699;43.068;0.152;2024-01-16T09:35:47;2.55;;;0.88;;
84474;SDS011;74699;43.068;0.152;2024-01-16T09:38:13;3.10;;;1.30;;
84474;SDS011;74699;43.068;0.152;2024-01-16T09:40:39;3.05;;;1.30;;
84474;SDS011;74699;43.068;0.152;2024-01-16T09:43:05;3.38;;;1.27;;
84474;SDS011;74699;43.068;0.152;2024-01-16T09:45:33;3.42;;;1.30;;
84474;SDS011;74699;43.068;0.152;2024-01-16T09:48:02;3.50;;;1.20;;
84474;SDS011;74699;43.068;0.152;2024-01-16T09:50:28;2.33;;;0.90;;
84474;SDS011;74699;43.068;0.152;2024-01-16T09:52:54;2.75;;;0.93;;
84474;SDS011;74699;43.068;0.152;2024-01-16T09:55:21;2.45;;;0.90;;
84474;SDS011;74699;43.068;0.152;2024-01-16T09:57:47;2.97;;;0.82;;
84474;SDS011;74699;43.068;0.152;2024-01-16T10:00:16;2.30;;;1.13;;
84474;SDS011;74699;43.068;0.152;2024-01-16T10:02:42;2.40;;;0.68;;
84474;SDS011;74699;43.068;0.152;2024-01-16T10:05:10;2.63;;;0.80;;
84474;SDS011;74699;43.068;0.152;2024-01-16T10:07:40;2.00;;;0.80;;
84474;SDS011;74699;43.068;0.152;2024-01-16T10:10:09;1.95;;;0.70;;
84474;SDS011;74699;43.068;0.152;2024-01-16T10:12:39;2.00;;;0.90;;
84474;SDS011;74699;43.068;0.152;2024-01-16T10:15:05;2.50;;;0.70;;
84474;SDS011;74699;43.068;0.152;2024-01-16T10:17:39;3.15;;;1.13;;
84474;SDS011;74699;43.068;0.152;2024-01-16T10:20:06;2.00;;;0.63;;
84474;SDS011;74699;43.068;0.152;2024-01-16T10:22:32;1.45;;;0.60;;
84474;SDS011;74699;43.068;0.152;2024-01-16T10:25:05;2.55;;;0.90;;
84474;SDS011;74699;43.068;0.152;2024-01-16T10:27:33;2.60;;;0.75;;
84474;SDS011;74699;43.068;0.152;2024-01-16T10:29:59;1.95;;;0.70;;
84474;SDS011;74699;43.068;0.152;2024-01-16T10:32:31;1.92;;;0.47;;
84474;SDS011;74699;43.068;0.152;2024-01-16T10:35:01;1.83;;;0.50;;
84474;SDS011;74699;43.068;0.152;2024-01-16T10:37:30;1.38;;;0.50;;
84474;SDS011;74699;43.068;0.152;2024-01-16T10:39:57;1.27;;;0.60;;
84474;SDS011;74699;43.068;0.152;2024-01-16T10:42:23;1.98;;;0.80;;
84474;SDS011;74699;43.068;0.152;2024-01-16T10:44:53;2.65;;;0.90;;
84474;SDS011;74699;43.068;0.152;2024-01-16T10:47:23;1.92;;;0.70;;
84474;SDS011;74699;43.068;0.152;2024-01-16T10:49:50;4.47;;;1.10;;
84474;SDS011;74699;43.068;0.152;2024-01-16T10:52:17;3.35;;;0.98;;
84474;SDS011;74699;43.068;0.152;2024-01-16T10:54:43;4.07;;;0.80;;
84474;SDS011;74699;43.068;0.152;2024-01-16T10:57:14;3.05;;;0.73;;
84474;SDS011;74699;43.068;0.152;2024-01-16T11:02:12;1.80;;;0.70;;
84474;SDS011;74699;43.068;0.152;2024-01-16T11:04:41;1.83;;;0.68;;
84474;SDS011;74699;43.068;0.152;2024-01-16T11:07:08;1.90;;;0.40;;
84474;SDS011;74699;43.068;0.152;2024-01-16T11:09:34;2.80;;;0.80;;
84474;SDS011;74699;43.068;0.152;2024-01-16T11:12:01;1.80;;;0.98;;
84474;SDS011;74699;43.068;0.152;2024-01-16T11:14:28;2.08;;;0.68;;
84474;SDS011;74699;43.068;0.152;2024-01-16T11:16:58;2.45;;;0.60;;
84474;SDS011;74699;43.068;0.152;2024-01-16T11:19:26;1.98;;;0.50;;
84474;SDS011;74699;43.068;0.152;2024-01-16T11:21:53;2.80;;;0.93;;
84474;SDS011;74699;43.068;0.152;2024-01-16T11:24:20;1.55;;;0.38;;
84474;SDS011;74699;43.068;0.152;2024-01-16T11:26:46;1.60;;;0.52;;
84474;SDS011;74699;43.068;0.152;2024-01-16T11:29:33;3.15;;;0.70;;
84474;SDS011;74699;43.068;0.152;2024-01-16T11:32:00;1.45;;;0.52;;
84474;SDS011;74699;43.068;0.152;2024-01-16T11:37:07;2.25;;;0.60;;
84474;SDS011;74699;43.068;0.152;2024-01-16T11:39:34;1.67;;;0.80;;
84474;SDS011;74699;43.068;0.152;2024-01-16T11:44:42;1.73;;;0.43;;
84474;SDS011;74699;43.068;0.152;2024-01-16T11:47:30;2.55;;;0.95;;
84474;SDS011;74699;43.068;0.152;2024-01-16T11:52:38;1.92;;;0.65;;
84474;SDS011;74699;43.068;0.152;2024-01-16T11:55:27;0.95;;;0.40;;
84474;SDS011;74699;43.068;0.152;2024-01-16T11:58:04;2.90;;;0.70;;
84474;SDS011;74699;43.068;0.152;2024-01-16T12:00:36;1.65;;;0.45;;
84474;SDS011;74699;43.068;0.152;2024-01-16T12:03:05;2.83;;;0.77;;
84474;SDS011;74699;43.068;0.152;2024-01-16T12:05:32;3.90;;;1.20;;
84474;SDS011;74699;43.068;0.152;2024-01-16T12:07:59;4.00;;;1.00;;
84474;SDS011;74699;43.068;0.152;2024-01-16T12:10:28;2.75;;;1.00;;
84474;SDS011;74699;43.068;0.152;2024-01-16T12:12:58;4.22;;;1.42;;
84474;SDS011;74699;43.068;0.152;2024-01-16T12:15:25;4.63;;;1.55;;
84474;SDS011;74699;43.068;0.152;2024-01-16T12:17:54;3.88;;;1.20;;
84474;SDS011;74699;43.068;0.152;2024-01-16T12:20:21;3.17;;;1.20;;
84474;SDS011;74699;43.068;0.152;2024-01-16T12:23:08;3.65;;;0.80;;
84474;SDS011;74699;43.068;0.152;2024-01-16T12:25:35;3.55;;;0.90;;
84474;SDS011;74699;43.068;0.152;2024-01-16T12:28:05;2.67;;;1.10;;
84474;SDS011;74699;43.068;0.152;2024-01-16T12:30:35;3.60;;;1.20;;
84474;SDS011;74699;43.068;0.152;2024-01-16T12:33:07;3.17;;;1.05;;
84474;SDS011;74699;43.068;0.152;2024-01-16T12:35:38;3.95;;;1.00;;
84474;SDS011;74699;43.068;0.152;2024-01-16T12:38:08;3.58;;;1.48;;
84474;SDS011;74699;43.068;0.152;2024-01-16T12:40:34;2.78;;;1.00;;
84474;SDS011;74699;43.068;0.152;2024-01-16T12:43:01;1.98;;;0.90;;
84474;SDS011;74699;43.068;0.152;2024-01-16T12:45:27;3.63;;;0.82;;
84474;SDS011;74699;43.068;0.152;2024-01-16T12:47:54;4.80;;;0.88;;
84474;SDS011;74699;43.068;0.152;2024-01-16T12:50:24;4.65;;;1.02;;
84474;SDS011;74699;43.068;0.152;2024-01-16T12:53:10;2.47;;;0.65;;
84474;SDS011;74699;43.068;0.152;2024-01-16T12:55:37;1.83;;;0.80;;
84474;SDS011;74699;43.068;0.152;2024-01-16T12:58:16;1.65;;;0.60;;
84474;SDS011;74699;43.068;0.152;2024-01-16T13:00:46;2.63;;;0.80;;
84474;SDS011;74699;43.068;0.152;2024-01-16T13:03:19;2.15;;;0.73;;
84474;SDS011;74699;43.068;0.152;2024-01-16T13:05:46;2.92;;;0.70;;
84474;SDS011;74699;43.068;0.152;2024-01-16T13:08:18;2.75;;;0.82;;
84474;SDS011;74699;43.068;0.152;2024-01-16T13:10:45;2.63;;;0.73;;
84474;SDS011;74699;43.068;0.152;2024-01-16T13:13:15;3.22;;;0.70;;
84474;SDS011;74699;43.068;0.152;2024-01-16T13:15:42;2.85;;;0.85;;
84474;SDS011;74699;43.068;0.152;2024-01-16T13:18:29;5.70;;;1.10;;
84474;SDS011;74699;43.068;0.152;2024-01-16T13:20:55;4.95;;;1.52;;
84474;SDS011;74699;43.068;0.152;2024-01-16T13:23:22;5.97;;;1.58;;
84474;SDS011;74699;43.068;0.152;2024-01-16T13:25:52;3.05;;;1.05;;
84474;SDS011;74699;43.068;0.152;2024-01-16T13:28:19;3.67;;;1.40;;
84474;SDS011;74699;43.068;0.152;2024-01-16T13:30:46;2.95;;;1.00;;
84474;SDS011;74699;43.068;0.152;2024-01-16T13:33:12;3.65;;;0.95;;
84474;SDS011;74699;43.068;0.152;2024-01-16T13:35:39;3.88;;;1.02;;
84474;SDS011;74699;43.068;0.152;2024-01-16T13:38:06;3.08;;;1.10;;
84474;SDS011;74699;43.068;0.152;2024-01-16T13:42:59;3.28;;;1.17;;
84474;SDS011;74699;43.068;0.152;2024-01-16T13:45:25;3.42;;;1.30;;
84474;SDS011;74699;43.068;0.152;2024-01-16T13:47:51;3.17;;;1.33;;
84474;SDS011;74699;43.068;0.152;2024-01-16T13:50:17;3.92;;;1.10;;
84474;SDS011;74699;43.068;0.152;2024-01-16T13:52:44;1.92;;;0.88;;
84474;SDS011;74699;43.068;0.152;2024-01-16T13:55:10;3.00;;;0.95;;
84474;SDS011;74699;43.068;0.152;2024-01-16T13:57:36;2.03;;;0.85;;
84474;SDS011;74699;43.068;0.152;2024-01-16T14:00:03;3.78;;;1.20;;
84474;SDS011;74699;43.068;0.152;2024-01-16T14:02:29;2.78;;;0.82;;
84474;SDS011;74699;43.068;0.152;2024-01-16T14:04:56;3.35;;;0.85;;
84474;SDS011;74699;43.068;0.152;2024-01-16T14:07:22;4.95;;;1.65;;
84474;SDS011;74699;43.068;0.152;2024-01-16T14:09:48;3.15;;;0.95;;
84474;SDS011;74699;43.068;0.152;2024-01-16T14:12:14;4.80;;;1.58;;
84474;SDS011;74699;43.068;0.152;2024-01-16T14:14:40;5.25;;;1.60;;
84474;SDS011;74699;43.068;0.152;2024-01-16T14:17:07;3.97;;;1.33;;
84474;SDS011;74699;43.068;0.152;2024-01-16T14:19:36;2.72;;;1.10;;
84474;SDS011;74699;43.068;0.152;2024-01-16T14:22:03;2.60;;;1.15;;
84474;SDS011;74699;43.068;0.152;2024-01-16T14:24:29;4.03;;;1.20;;
84474;SDS011;74699;43.068;0.152;2024-01-16T14:26:55;4.35;;;1.40;;
84474;SDS011;74699;43.068;0.152;2024-01-16T14:29:24;3.58;;;1.67;;
84474;SDS011;74699;43.068;0.152;2024-01-16T14:31:52;3.00;;;1.35;;
84474;SDS011;74699;43.068;0.152;2024-01-16T14:34:20;4.30;;;1.50;;
84474;SDS011;74699;43.068;0.152;2024-01-16T14:36:46;3.33;;;1.50;;
84474;SDS011;74699;43.068;0.152;2024-01-16T14:39:12;4.78;;;2.03;;
84474;SDS011;74699;43.068;0.152;2024-01-16T14:41:42;5.45;;;1.90;;
84474;SDS011;74699;43.068;0.152;2024-01-16T14:44:09;3.53;;;1.70;;
84474;SDS011;74699;43.068;0.152;2024-01-16T14:46:36;3.85;;;2.05;;
84474;SDS011;74699;43.068;0.152;2024-01-16T14:49:02;5.25;;;3.70;;
84474;SDS011;74699;43.068;0.152;2024-01-16T14:51:28;4.30;;;2.95;;
84474;SDS011;74699;43.068;0.152;2024-01-16T14:53:54;5.43;;;3.20;;
84474;SDS011;74699;43.068;0.152;2024-01-16T14:56:20;6.72;;;3.20;;
84474;SDS011;74699;43.068;0.152;2024-01-16T14:58:46;5.30;;;2.60;;
84474;SDS011;74699;43.068;0.152;2024-01-16T15:01:13;6.40;;;3.95;;